Time;durP1;ratioP1;P1;durP2;ratioP2;P2;SDS_P1;SDS_P2;PMS_P1;PMS_P2;Temp;Humidity;BMP_temperature;BMP_pressure;BME280_temperature;BME280_humidity;BME280_pressure;Samples;Min_cycle;Max_cycle;Signal;HPM_P1;HPM_P2
2022/06/02 00:03:53;;;;;;;9.43;7.28;;;13.10;99.90;;;;;;20941848;28;19912;-82
2022/06/02 00:14:10;;;;;;;14.15;9.73;;;13.00;99.90;;;;;;20939589;28;20079;-81
2022/06/02 00:24:18;;;;;;;9.93;6.50;;;13.10;99.90;;;;;;20939258;28;20043;-83
2022/06/02 00:34:38;;;;;;;13.88;7.22;;;12.90;99.90;;;;;;20938642;28;20068;-82
2022/06/02 00:44:59;;;;;;;6.63;5.28;;;12.90;99.90;;;;;;20933903;28;20075;-80
2022/06/02 01:05:45;;;;;;;10.35;5.38;;;12.70;99.90;;;;;;20935877;28;20033;-81
2022/06/02 01:16:12;;;;;;;12.52;4.38;;;12.70;99.90;;;;;;20936622;28;20029;-82
2022/06/02 01:26:25;;;;;;;7.40;4.20;;;12.80;99.90;;;;;;20920657;28;20087;-78
2022/06/02 01:36:41;;;;;;;8.35;5.88;;;12.60;99.90;;;;;;20931586;28;20092;-81
2022/06/02 01:47:22;;;;;;;9.00;4.80;;;12.50;99.90;;;;;;20917195;28;20055;-82
2022/06/02 01:57:45;;;;;;;7.37;4.83;;;12.40;99.90;;;;;;20868937;28;20068;-79
2022/06/02 02:07:54;;;;;;;11.80;6.80;;;12.40;99.90;;;;;;20937216;28;20111;-80
2022/06/02 02:18:15;;;;;;;5.80;4.25;;;12.30;99.90;;;;;;20929816;28;20033;-78
2022/06/02 02:28:42;;;;;;;5.35;3.42;;;12.30;99.90;;;;;;20886285;28;20430;-80
2022/06/02 02:38:48;;;;;;;10.77;3.28;;;12.20;99.90;;;;;;20818407;23;20457;-76
2022/06/02 02:49:04;;;;;;;5.38;3.38;;;12.20;99.90;;;;;;20834278;28;20025;-76
2022/06/02 02:59:31;;;;;;;5.97;3.75;;;12.20;99.90;;;;;;20836807;28;20033;-77
2022/06/02 03:09:41;;;;;;;5.90;3.15;;;12.10;99.90;;;;;;20836444;28;20029;-76
2022/06/02 03:20:18;;;;;;;6.32;3.42;;;12.10;99.90;;;;;;20835694;28;20720;-77
2022/06/02 03:30:21;;;;;;;5.63;3.42;;;12.10;99.90;;;;;;20833995;28;20033;-75
2022/06/02 03:40:37;;;;;;;4.93;3.00;;;12.00;99.90;;;;;;20744376;28;20021;-76
2022/06/02 03:51:12;;;;;;;8.18;3.75;;;11.80;99.90;;;;;;20699185;28;20038;-76
2022/06/02 04:01:21;;;;;;;5.13;3.15;;;11.70;99.90;;;;;;20783828;28;20483;-76
2022/06/02 04:22:25;;;;;;;4.38;3.22;;;11.80;99.90;;;;;;20811973;28;20041;-77
2022/06/02 04:32:41;;;;;;;4.95;3.55;;;11.90;99.90;;;;;;20818203;28;20075;-76
2022/06/02 04:43:06;;;;;;;5.13;3.45;;;12.20;99.90;;;;;;20821944;28;20109;-77
2022/06/02 04:53:29;;;;;;;5.72;3.90;;;12.50;99.90;;;;;;20757483;28;20038;-76
2022/06/02 05:03:49;;;;;;;5.00;3.70;;;12.70;99.90;;;;;;20783747;28;20069;-77
2022/06/02 05:14:10;;;;;;;4.95;3.50;;;12.90;99.90;;;;;;20786332;28;20091;-76
2022/06/02 05:24:45;;;;;;;10.33;4.47;;;13.30;99.90;;;;;;20824291;28;20440;-75
2022/06/02 05:35:08;;;;;;;14.13;5.22;;;13.60;99.90;;;;;;20825905;28;20033;-77
2022/06/02 05:45:17;;;;;;;;;;;14.10;99.90;;;;;;20825607;28;20499;-76
2022/06/02 05:55:30;;;;;;;8.90;5.82;;;14.30;99.90;;;;;;20698576;28;19925;-76
2022/06/02 06:05:44;;;;;;;6.25;4.03;;;14.20;99.90;;;;;;20723773;28;20396;-76
2022/06/02 06:16:10;;;;;;;5.50;3.92;;;14.30;99.90;;;;;;20735087;28;20068;-77
2022/06/02 06:26:14;;;;;;;6.53;4.22;;;14.60;99.90;;;;;;20709786;28;20061;-77
2022/06/02 06:36:33;;;;;;;6.53;3.42;;;14.80;99.90;;;;;;20755890;28;20041;-77
2022/06/02 06:46:37;;;;;;;4.57;3.30;;;15.60;99.90;;;;;;20758386;28;20026;-77
2022/06/02 06:56:53;;;;;;;5.47;3.42;;;16.40;99.90;;;;;;20756272;28;20132;-77
2022/06/02 07:07:01;;;;;;;8.10;3.83;;;16.50;99.90;;;;;;20763010;28;20041;-79
2022/06/02 07:17:10;;;;;;;7.82;3.60;;;15.70;99.90;;;;;;20770816;28;20033;-79
2022/06/02 07:27:28;;;;;;;6.80;3.72;;;16.90;99.90;;;;;;20766394;28;20048;-79
2022/06/02 07:37:35;;;;;;;5.90;3.03;;;17.60;99.90;;;;;;20764556;28;20042;-77
2022/06/02 07:47:48;;;;;;;4.25;2.50;;;17.70;99.90;;;;;;20769041;28;20038;-77
2022/06/02 07:57:56;;;;;;;11.15;2.35;;;18.10;99.90;;;;;;20755115;28;20040;-77
2022/06/02 08:08:13;;;;;;;7.43;2.75;;;17.80;99.90;;;;;;20757583;28;20042;-77
2022/06/02 08:18:17;;;;;;;5.45;2.00;;;17.70;99.90;;;;;;20755381;28;20034;-77
2022/06/02 08:28:48;;;;;;;4.50;2.20;;;18.20;99.90;;;;;;20753574;28;20025;-77
2022/06/02 08:38:55;;;;;;;5.30;1.92;;;18.90;99.90;;;;;;20682358;23;20054;-72
2022/06/02 08:49:05;;;;;;;3.60;1.90;;;19.60;99.90;;;;;;20664009;28;20030;-72
2022/06/02 08:59:34;;;;;;;3.92;2.42;;;19.70;99.90;;;;;;20664643;28;20069;-73
2022/06/02 09:09:57;;;;;;;4.57;2.42;;;20.60;99.90;;;;;;20662786;28;20038;-74
2022/06/02 09:20:14;;;;;;;;;;;21.70;99.90;;;;;;20663947;28;20049;-74
2022/06/02 09:30:19;;;;;;;2.83;2.50;;;22.30;99.90;;;;;;20662899;28;19952;-74
2022/06/02 09:40:45;;;;;;;3.95;2.65;;;22.20;99.90;;;;;;20662444;28;20038;-74
2022/06/02 09:51:04;;;;;;;4.80;2.60;;;22.70;99.90;;;;;;20662147;28;20128;-74
2022/06/02 10:01:42;;;;;;;4.78;2.60;;;23.10;99.90;;;;;;20678785;28;20561;-74
2022/06/02 10:22:56;;;;;;;4.82;2.30;;;23.50;99.90;;;;;;20676783;28;20037;-74
2022/06/02 10:33:06;;;;;;;3.53;2.20;;;23.40;99.90;;;;;;20675876;28;20038;-73
2022/06/02 10:43:35;;;;;;;4.50;2.20;;;23.30;99.90;;;;;;20675312;28;20041;-74
2022/06/02 10:54:00;;;;;;;3.08;1.88;;;23.30;99.90;;;;;;20674615;28;20392;-74
2022/06/02 11:04:38;;;;;;;5.35;2.10;;;25.50;99.90;;;;;;20672762;28;20088;-75
2022/06/02 11:14:45;;;;;;;5.28;2.35;;;25.20;99.90;;;;;;20655340;28;20026;-74
2022/06/02 11:24:46;;;;;;;4.90;1.88;;;25.60;99.90;;;;;;20670867;28;20030;-74
2022/06/02 11:35:28;;;;;;;3.78;2.17;;;26.70;99.90;;;;;;20672756;28;20112;-74
2022/06/02 11:45:49;;;;;;;4.03;2.70;;;26.30;99.90;;;;;;20669084;28;20088;-74
2022/06/02 11:55:54;;;;;;;5.65;2.28;;;25.30;99.90;;;;;;20669587;28;20026;-74
2022/06/02 12:06:32;;;;;;;4.40;2.00;;;23.90;99.90;;;;;;20668439;28;20030;-75
2022/06/02 12:17:15;;;;;;;5.40;2.55;;;23.90;99.90;;;;;;20667876;28;20564;-75
2022/06/02 12:27:34;;;;;;;6.38;3.28;;;23.00;99.90;;;;;;20666908;28;20034;-75
2022/06/02 12:38:04;;;;;;;13.73;4.75;;;22.80;99.90;;;;;;20664760;28;20038;-75
2022/06/02 12:48:18;;;;;;;11.32;3.65;;;22.30;99.90;;;;;;20647688;28;20034;-75
2022/06/02 12:58:43;;;;;;;4.07;2.88;;;21.70;99.90;;;;;;20666238;28;20125;-75
2022/06/02 13:09:02;;;;;;;5.38;3.10;;;20.90;99.90;;;;;;20663825;28;20030;-74
2022/06/02 13:19:30;;;;;;;6.40;4.85;;;21.70;99.90;;;;;;20663066;28;20034;-74
2022/06/02 13:29:59;;;;;;;13.55;4.75;;;22.20;99.90;;;;;;20656280;28;20484;-75
2022/06/02 13:40:21;;;;;;;8.50;4.22;;;22.20;99.90;;;;;;20660783;28;20035;-74
2022/06/02 13:50:41;;;;;;;;;;;22.40;99.90;;;;;;20662676;28;20061;-74
2022/06/02 14:01:00;;;;;;;5.63;3.70;;;22.20;99.90;;;;;;20659897;28;19913;-75
2022/06/02 14:11:22;;;;;;;7.35;3.65;;;21.80;99.90;;;;;;20658355;28;20031;-74
2022/06/02 14:21:35;;;;;;;5.63;3.85;;;21.80;99.90;;;;;;20640666;28;20463;-74
2022/06/02 14:31:54;;;;;;;6.82;4.32;;;22.60;99.90;;;;;;20752600;22;20059;-78
2022/06/02 14:53:04;;;;;;;6.97;3.47;;;23.70;99.90;;;;;;20803928;28;20029;-78
2022/06/02 15:03:32;;;;;;;11.75;3.58;;;23.60;99.90;;;;;;20800604;28;20034;-78
2022/06/02 15:13:57;;;;;;;4.57;3.58;;;23.70;99.90;;;;;;20807253;28;20039;-79
2022/06/02 15:24:19;;;;;;;4.80;3.20;;;23.90;99.90;;;;;;20832416;28;20033;-79
2022/06/02 15:34:57;;;;;;;4.80;2.90;;;23.00;99.90;;;;;;20819922;28;20056;-79
2022/06/02 15:45:17;;;;;;;7.93;2.72;;;22.60;99.90;;;;;;20826409;28;20030;-80
2022/06/02 15:55:37;;;;;;;6.95;3.20;;;22.60;99.90;;;;;;20824260;28;20057;-79
2022/06/02 16:05:40;;;;;;;6.93;3.00;;;22.60;99.90;;;;;;20836498;28;20624;-79
2022/06/02 16:16:02;;;;;;;5.82;2.80;;;22.60;99.90;;;;;;20849430;28;20046;-80
2022/06/02 16:26:31;;;;;;;4.00;2.35;;;22.80;99.90;;;;;;20835863;28;20037;-80
2022/06/02 16:36:51;;;;;;;38.35;4.97;;;23.10;99.90;;;;;;20887433;28;20036;-80
2022/06/02 16:47:22;;;;;;;2.53;2.00;;;23.00;99.90;;;;;;20843887;28;20029;-77
2022/06/02 16:57:42;;;;;;;3.00;2.15;;;22.80;99.90;;;;;;20836357;28;20025;-79
2022/06/02 17:07:52;;;;;;;3.30;2.35;;;22.70;99.90;;;;;;20835402;28;20030;-78
2022/06/02 17:18:05;;;;;;;3.83;2.38;;;22.40;99.90;;;;;;20837957;28;20044;-79
2022/06/02 17:28:30;;;;;;;4.53;2.30;;;22.50;99.90;;;;;;20841858;28;20112;-80
2022/06/02 17:38:53;;;;;;;2.65;2.15;;;22.50;99.90;;;;;;20839492;28;20131;-80
2022/06/02 17:48:57;;;;;;;3.85;2.35;;;22.00;99.90;;;;;;20837986;28;20052;-80
2022/06/02 17:59:07;;;;;;;4.85;2.45;;;22.40;99.90;;;;;;20839042;28;20041;-79
2022/06/02 18:09:28;;;;;;;6.35;2.80;;;22.90;99.90;;;;;;20835127;28;20038;-79
2022/06/02 18:19:57;;;;;;;6.87;2.53;;;22.60;99.90;;;;;;20847943;28;20037;-80
2022/06/02 18:30:21;;;;;;;4.57;2.53;;;21.70;99.90;;;;;;20856550;28;20033;-79
2022/06/02 18:40:51;;;;;;;4.43;2.50;;;20.90;99.90;;;;;;20853094;28;20033;-79
2022/06/02 18:51:03;;;;;;;5.22;2.50;;;20.30;99.90;;;;;;20858739;28;20459;-80
2022/06/02 19:01:36;;;;;;;6.80;2.77;;;19.90;99.90;;;;;;20840430;28;20049;-79
2022/06/02 19:22:43;;;;;;;5.20;2.72;;;19.20;99.90;;;;;;20747523;28;20073;-79
2022/06/02 19:33:16;;;;;;;3.03;2.72;;;19.20;99.90;;;;;;20753854;28;20037;-79
2022/06/02 19:43:40;;;;;;;3.20;2.90;;;19.10;99.90;;;;;;20753980;28;20113;-79
2022/06/02 19:54:05;;;;;;;3.60;3.00;;;18.90;99.90;;;;;;20757361;28;20083;-79
2022/06/02 20:04:35;;;;;;;5.18;3.58;;;18.60;99.90;;;;;;20787141;28;20056;-79
2022/06/02 20:14:40;;;;;;;6.13;3.13;;;18.10;99.90;;;;;;20750005;28;20038;-77
2022/06/02 20:24:49;;;;;;;4.60;2.90;;;18.10;99.90;;;;;;20752029;28;20033;-79
2022/06/02 20:35:30;;;;;;;14.45;3.03;;;18.00;99.90;;;;;;20860822;23;20044;-80
2022/06/02 20:45:59;;;;;;;5.10;2.88;;;17.90;99.90;;;;;;21011185;28;20075;-78
2022/06/02 20:56:15;;;;;;;3.42;2.70;;;17.80;99.90;;;;;;21006562;28;20140;-79
2022/06/02 21:06:22;;;;;;;7.72;4.22;;;17.50;99.90;;;;;;20986090;28;20024;-79
2022/06/02 21:16:27;;;;;;;6.65;2.95;;;17.40;99.90;;;;;;20947896;28;20108;-79
2022/06/02 21:26:59;;;;;;;3.97;3.10;;;17.40;99.90;;;;;;20915282;28;20032;-79
2022/06/02 21:37:06;;;;;;;5.67;3.57;;;17.20;99.90;;;;;;20912855;28;20045;-80
2022/06/02 21:47:46;;;;;;;3.60;3.15;;;17.20;99.90;;;;;;20919874;28;20059;-79
2022/06/02 21:57:55;;;;;;;4.82;3.15;;;17.20;99.90;;;;;;20919280;28;20079;-80
2022/06/02 22:08:11;;;;;;;4.47;3.25;;;16.90;99.90;;;;;;20940693;28;20395;-80
2022/06/02 22:18:17;;;;;;;12.25;4.53;;;17.10;99.90;;;;;;20943579;28;20033;-79
2022/06/02 22:28:48;;;;;;;4.43;3.55;;;17.00;99.90;;;;;;20998384;28;20024;-82
2022/06/02 22:38:58;;;;;;;6.13;3.35;;;16.80;99.90;;;;;;21003600;28;20052;-80
2022/06/02 22:49:02;;;;;;;7.40;3.45;;;16.70;99.90;;;;;;21002054;28;20033;-78
2022/06/02 22:59:20;;;;;;;4.82;3.55;;;16.60;99.90;;;;;;21015925;28;20398;-81
2022/06/02 23:09:49;;;;;;;4.85;3.45;;;16.40;99.90;;;;;;21014998;28;20506;-78
2022/06/02 23:20:01;;;;;;;4.47;3.60;;;16.40;99.90;;;;;;21014977;28;20247;-78
2022/06/02 23:30:31;;;;;;;8.85;3.88;;;16.20;99.90;;;;;;21002915;28;20036;-79
2022/06/02 23:40:53;;;;;;;6.72;4.28;;;16.30;99.90;;;;;;20993363;28;20059;-79
2022/06/02 23:51:12;;;;;;;6.20;4.37;;;16.30;99.90;;;;;;21015790;28;20533;-80
